createdAt,value
2018-06-18T00:00:40.459Z,16.56
2018-06-18T00:03:11.879Z,16.54
2018-06-18T00:05:43.174Z,16.44
2018-06-18T00:08:14.732Z,16.40
2018-06-18T00:10:45.839Z,16.40
2018-06-18T00:13:17.495Z,16.47
2018-06-18T00:15:48.754Z,16.46
2018-06-18T00:18:20.201Z,16.44
2018-06-18T00:20:51.849Z,16.33
2018-06-18T00:23:23.542Z,16.28
2018-06-18T00:25:54.832Z,16.33
2018-06-18T00:28:26.069Z,16.31
2018-06-18T00:30:57.471Z,16.21
2018-06-18T00:33:28.960Z,16.15
2018-06-18T00:36:00.035Z,16.16
2018-06-18T00:38:31.309Z,16.20
2018-06-18T00:41:02.761Z,16.22
2018-06-18T00:43:34.201Z,16.25
2018-06-18T00:46:05.690Z,16.18
2018-06-18T00:48:37.019Z,16.18
2018-06-18T00:51:08.260Z,16.15
2018-06-18T00:53:39.403Z,16.10
2018-06-18T00:56:12.986Z,16.21
2018-06-18T00:58:44.310Z,16.24
2018-06-18T01:01:15.573Z,16.01
2018-06-18T01:03:47.042Z,15.77
2018-06-18T01:06:18.287Z,16.02
2018-06-18T01:08:49.787Z,16.02
2018-06-18T01:11:21.019Z,16.07
2018-06-18T01:13:52.309Z,16.11
2018-06-18T01:16:23.511Z,16.06
2018-06-18T01:18:55.644Z,16.02
2018-06-18T01:21:26.821Z,16.03
2018-06-18T01:25:05.483Z,16.11
2018-06-18T01:27:36.619Z,16.07
2018-06-18T01:30:08.151Z,16.04
2018-06-18T01:32:39.556Z,15.81
2018-06-18T01:35:10.969Z,15.90
2018-06-18T01:37:42.030Z,15.89
2018-06-18T01:40:13.373Z,15.46
2018-06-18T01:42:44.639Z,15.58
2018-06-18T01:45:16.067Z,15.79
2018-06-18T01:47:47.105Z,15.83
2018-06-18T01:50:18.349Z,15.95
2018-06-18T01:52:49.580Z,15.93
2018-06-18T01:55:21.094Z,15.73
2018-06-18T01:57:52.106Z,15.92
2018-06-18T02:00:23.798Z,15.87
2018-06-18T02:02:55.067Z,15.92
2018-06-18T02:05:26.267Z,16.02
2018-06-18T02:07:57.552Z,16.02
2018-06-18T02:10:29.384Z,15.88
2018-06-18T02:13:00.919Z,15.98
2018-06-18T02:15:33.472Z,16.02
2018-06-18T02:18:04.856Z,16.02
2018-06-18T02:20:36.975Z,16.15
2018-06-18T02:23:08.332Z,16.18
2018-06-18T02:25:39.662Z,16.21
2018-06-18T02:28:15.541Z,16.21
2018-06-18T02:30:52.495Z,16.08
2018-06-18T02:33:28.515Z,15.96
2018-06-18T02:36:04.846Z,15.78
2018-06-18T02:38:41.127Z,16.00
2018-06-18T02:41:12.386Z,16.05
2018-06-18T02:43:43.663Z,15.99
2018-06-18T02:46:14.903Z,15.96
2018-06-18T02:48:46.093Z,16.07
2018-06-18T02:51:17.557Z,16.09
2018-06-18T02:53:48.769Z,15.92
2018-06-18T02:56:22.959Z,16.05
2018-06-18T02:58:54.037Z,15.95
2018-06-18T03:01:25.213Z,15.87
2018-06-18T03:03:56.393Z,16.00
2018-06-18T03:06:28.371Z,15.90
2018-06-18T03:08:59.603Z,16.08
2018-06-18T03:11:31.081Z,15.49
2018-06-18T03:14:02.262Z,15.75
2018-06-18T03:16:34.384Z,15.93
2018-06-18T03:19:11.156Z,15.89
2018-06-18T03:21:47.331Z,15.96
2018-06-18T03:24:23.389Z,16.01
2018-06-18T03:26:59.666Z,15.73
2018-06-18T03:29:33.054Z,15.58
2018-06-18T03:32:09.874Z,15.40
2018-06-18T03:34:41.320Z,15.81
2018-06-18T03:37:14.945Z,15.86
2018-06-18T03:39:46.149Z,15.99
2018-06-18T03:42:17.432Z,16.05
2018-06-18T03:45:52.149Z,16.01
2018-06-18T03:48:23.699Z,16.03
2018-06-18T03:50:54.937Z,16.07
2018-06-18T03:53:26.262Z,16.12
2018-06-18T03:56:00.002Z,16.03
2018-06-18T03:58:32.149Z,16.12
2018-06-18T04:01:19.065Z,16.18
2018-06-18T04:03:56.092Z,16.06
2018-06-18T04:06:32.485Z,16.05
2018-06-18T04:09:09.116Z,15.97
2018-06-18T04:11:45.246Z,15.81
2018-06-18T04:14:17.011Z,16.00
2018-06-18T04:16:48.178Z,16.11
2018-06-18T04:19:19.409Z,16.25
2018-06-18T04:21:51.744Z,16.41
2018-06-18T04:24:24.460Z,16.58
2018-06-18T04:26:56.243Z,16.56
2018-06-18T04:29:27.800Z,16.46
2018-06-18T04:31:58.916Z,16.41
2018-06-18T04:34:37.107Z,16.48
2018-06-18T04:37:09.181Z,16.32
2018-06-18T04:39:40.428Z,16.38
2018-06-18T04:42:16.590Z,16.38
2018-06-18T04:44:52.798Z,16.40
2018-06-18T04:47:28.976Z,16.62
2018-06-18T04:50:05.903Z,16.72
2018-06-18T04:52:37.096Z,16.77
2018-06-18T04:55:08.878Z,16.97
2018-06-18T04:57:40.050Z,17.02
2018-06-18T05:00:23.850Z,16.95
2018-06-18T05:02:55.237Z,17.22
2018-06-18T05:05:26.345Z,17.17
2018-06-18T05:08:06.305Z,16.75
2018-06-18T05:10:37.539Z,17.05
2018-06-18T05:13:08.771Z,17.33
2018-06-18T05:15:41.454Z,17.14
2018-06-18T05:18:12.519Z,17.43
2018-06-18T05:20:43.873Z,17.52
2018-06-18T05:23:18.561Z,17.67
2018-06-18T05:25:54.470Z,17.71
2018-06-18T05:28:27.866Z,17.72
2018-06-18T05:30:59.856Z,18.07
2018-06-18T05:33:31.077Z,17.89
2018-06-18T05:36:02.478Z,17.99
2018-06-18T05:38:35.782Z,17.98
2018-06-18T05:41:07.032Z,18.23
2018-06-18T05:43:40.392Z,18.39
2018-06-18T05:46:12.151Z,18.45
2018-06-18T05:48:43.604Z,18.16
2018-06-18T05:51:31.897Z,18.23
2018-06-18T05:54:03.210Z,18.06
2018-06-18T05:56:35.198Z,18.09
2018-06-18T05:59:08.907Z,18.41
2018-06-18T06:01:42.398Z,18.65
2018-06-18T06:04:13.977Z,18.80
2018-06-18T06:06:45.190Z,18.61
2018-06-18T06:09:16.823Z,18.22
2018-06-18T06:11:48.153Z,18.09
2018-06-18T06:14:19.649Z,18.22
2018-06-18T06:16:52.532Z,17.96
2018-06-18T06:19:24.433Z,17.57
2018-06-18T06:21:55.490Z,17.23
2018-06-18T06:24:26.821Z,17.65
2018-06-18T06:26:58.013Z,17.86
2018-06-18T06:29:29.286Z,18.00
2018-06-18T06:32:00.427Z,18.12
2018-06-18T06:34:31.841Z,18.09
2018-06-18T06:37:03.214Z,18.09
2018-06-18T06:39:35.350Z,18.29
2018-06-18T06:42:12.471Z,18.54
2018-06-18T06:44:43.603Z,18.82
2018-06-18T06:47:14.925Z,18.65
2018-06-18T06:49:47.282Z,18.94
2018-06-18T06:52:18.786Z,19.13
2018-06-18T06:54:51.449Z,18.95
2018-06-18T06:57:23.006Z,19.18
2018-06-18T06:59:54.263Z,19.20
2018-06-18T07:02:25.487Z,19.27
2018-06-18T07:04:57.069Z,18.83
2018-06-18T07:07:28.108Z,18.70
2018-06-18T07:09:59.281Z,18.87
2018-06-18T07:12:30.587Z,19.04
2018-06-18T07:15:01.743Z,18.78
2018-06-18T07:17:33.566Z,18.63
2018-06-18T07:20:04.897Z,18.57
2018-06-18T07:22:36.239Z,18.91
2018-06-18T07:25:07.421Z,19.10
2018-06-18T07:27:38.725Z,18.74
2018-06-18T07:30:10.292Z,18.75
2018-06-18T07:32:41.399Z,19.30
2018-06-18T07:35:12.486Z,18.77
2018-06-18T07:37:43.645Z,18.57
2018-06-18T07:40:15.202Z,18.50
2018-06-18T07:42:46.583Z,18.96
2018-06-18T07:45:23.164Z,18.92
2018-06-18T07:47:54.708Z,19.16
2018-06-18T07:50:26.395Z,18.81
2018-06-18T07:52:57.387Z,18.59
2018-06-18T07:55:29.454Z,18.40
2018-06-18T07:58:01.056Z,18.20
2018-06-18T08:00:32.194Z,18.66
2018-06-18T08:03:03.565Z,18.95
2018-06-18T08:05:34.822Z,19.21
2018-06-18T08:08:06.079Z,19.53
2018-06-18T08:10:37.254Z,19.37
2018-06-18T08:13:08.541Z,19.34
2018-06-18T08:15:41.284Z,19.04
2018-06-18T08:18:13.340Z,19.11
2018-06-18T08:20:44.718Z,19.49
2018-06-18T08:23:15.740Z,19.63
2018-06-18T08:25:47.595Z,19.59
2018-06-18T08:28:19.356Z,20.04
2018-06-18T08:30:52.919Z,20.15
2018-06-18T08:33:24.480Z,19.79
2018-06-18T08:35:55.855Z,19.93
2018-06-18T08:38:27.961Z,20.04
2018-06-18T08:40:59.413Z,20.20
2018-06-18T08:43:30.891Z,20.33
2018-06-18T08:46:02.105Z,20.19
2018-06-18T08:48:38.248Z,20.20
2018-06-18T08:51:15.058Z,19.95
2018-06-18T08:53:51.701Z,19.93
2018-06-18T08:57:29.116Z,20.21
2018-06-18T09:00:05.397Z,20.24
2018-06-18T09:02:36.640Z,20.12
2018-06-18T09:05:12.347Z,20.11
2018-06-18T09:07:48.675Z,20.13
2018-06-18T09:10:20.244Z,20.05
2018-06-18T09:12:51.485Z,20.36
2018-06-18T09:15:23.905Z,19.98
2018-06-18T09:17:56.468Z,20.16
2018-06-18T09:20:27.660Z,20.06
2018-06-18T09:22:58.822Z,19.96
2018-06-18T09:25:30.447Z,19.78
2018-06-18T09:28:01.918Z,20.20
2018-06-18T09:30:34.735Z,20.52
2018-06-18T09:33:06.026Z,20.94
2018-06-18T09:35:37.392Z,21.20
2018-06-18T09:38:09.865Z,21.52
2018-06-18T09:40:50.130Z,21.32
2018-06-18T09:43:24.448Z,21.27
2018-06-18T09:46:00.511Z,20.96
2018-06-18T09:50:50.818Z,21.01
2018-06-18T09:53:26.862Z,20.93
2018-06-18T09:56:02.907Z,20.89
2018-06-18T09:59:37.715Z,20.87
2018-06-18T10:02:09.792Z,20.77
2018-06-18T10:04:40.916Z,20.67
2018-06-18T10:07:13.235Z,20.96
2018-06-18T10:09:44.428Z,20.92
2018-06-18T10:12:15.795Z,20.68
2018-06-18T10:14:47.138Z,20.72
2018-06-18T10:17:19.130Z,20.88
2018-06-18T10:19:51.742Z,21.26
2018-06-18T10:22:23.570Z,21.26
2018-06-18T10:24:55.387Z,21.13
2018-06-18T10:27:27.702Z,20.81
2018-06-18T10:29:59.874Z,21.14
2018-06-18T10:32:36.137Z,21.26
2018-06-18T10:36:13.294Z,21.35
2018-06-18T10:38:49.501Z,21.08
2018-06-18T10:41:26.127Z,21.16
2018-06-18T10:43:57.486Z,20.55
2018-06-18T10:46:29.471Z,20.42
2018-06-18T10:49:00.931Z,20.78
2018-06-18T10:51:33.513Z,21.13
2018-06-18T10:54:05.997Z,21.05
2018-06-18T10:56:37.995Z,21.05
2018-06-18T10:59:09.186Z,20.61
2018-06-18T11:01:43.137Z,20.61
2018-06-18T11:04:34.752Z,20.61
2018-06-18T11:07:07.574Z,20.57
2018-06-18T11:09:38.664Z,20.67
2018-06-18T11:12:09.833Z,20.93
2018-06-18T11:14:41.659Z,21.16
2018-06-18T11:17:18.768Z,21.41
2018-06-18T11:19:55.570Z,21.61
2018-06-18T11:22:38.516Z,21.78
2018-06-18T11:25:25.497Z,21.51
2018-06-18T11:27:59.906Z,21.11
2018-06-18T11:30:33.177Z,21.23
2018-06-18T11:33:06.436Z,21.44
2018-06-18T11:35:37.571Z,21.59
2018-06-18T11:38:10.347Z,21.71
2018-06-18T11:40:41.988Z,21.69
2018-06-18T11:43:16.262Z,21.87
2018-06-18T11:45:48.626Z,21.97
2018-06-18T11:48:22.180Z,22.01
2018-06-18T11:50:53.626Z,22.61
2018-06-18T11:53:25.015Z,22.52
2018-06-18T11:55:56.535Z,21.86
2018-06-18T11:59:33.479Z,22.05
2018-06-18T12:02:09.569Z,21.95
2018-06-18T12:04:45.818Z,21.54
2018-06-18T12:07:22.512Z,21.45
2018-06-18T12:09:54.363Z,21.88
2018-06-18T12:12:26.146Z,21.86
2018-06-18T12:14:57.323Z,21.67
2018-06-18T12:17:28.452Z,21.46
2018-06-18T12:19:59.778Z,21.69
2018-06-18T12:22:30.866Z,21.58
2018-06-18T12:25:02.249Z,22.10
2018-06-18T12:27:35.435Z,22.30
2018-06-18T12:30:06.770Z,22.26
2018-06-18T12:32:37.882Z,21.62
2018-06-18T12:35:09.171Z,21.93
2018-06-18T12:37:41.223Z,22.02
2018-06-18T12:40:12.367Z,21.33
2018-06-18T12:42:43.621Z,21.44
2018-06-18T12:45:22.343Z,22.17
2018-06-18T12:47:59.229Z,21.64
2018-06-18T12:50:36.216Z,22.43
2018-06-18T12:53:12.192Z,22.47
2018-06-18T12:55:48.537Z,22.86
2018-06-18T12:58:19.558Z,22.94
2018-06-18T13:00:51.154Z,21.94
2018-06-18T13:03:22.739Z,22.08
2018-06-18T13:05:54.076Z,21.96
2018-06-18T13:08:25.254Z,22.63
2018-06-18T13:10:56.431Z,22.68
2018-06-18T13:13:27.783Z,22.37
2018-06-18T13:15:58.920Z,22.14
2018-06-18T13:18:30.072Z,22.32
2018-06-18T13:21:01.348Z,22.46
2018-06-18T13:23:32.712Z,21.89
2018-06-18T13:26:04.064Z,21.94
2018-06-18T13:28:36.142Z,22.65
2018-06-18T13:31:07.895Z,23.12
2018-06-18T13:33:39.481Z,23.25
2018-06-18T13:36:10.773Z,22.57
2018-06-18T13:38:49.726Z,22.50
2018-06-18T13:41:34.450Z,22.66
2018-06-18T13:48:39.674Z,21.97
2018-06-18T13:51:52.224Z,22.30
2018-06-18T13:55:08.407Z,22.64
2018-06-18T13:57:43.612Z,22.50
2018-06-18T14:00:15.058Z,22.48
2018-06-18T14:02:46.128Z,22.65
2018-06-18T14:05:17.293Z,22.88
2018-06-18T14:07:48.502Z,21.89
2018-06-18T14:10:19.941Z,21.86
2018-06-18T14:12:51.092Z,21.97
2018-06-18T14:15:22.344Z,21.91
2018-06-18T14:17:53.377Z,21.68
2018-06-18T14:20:26.552Z,21.97
2018-06-18T14:22:57.486Z,22.24
2018-06-18T14:25:28.643Z,22.54
2018-06-18T14:27:59.793Z,22.64
2018-06-18T14:30:35.885Z,22.86
2018-06-18T14:33:12.029Z,22.70
2018-06-18T14:35:48.456Z,22.84
2018-06-18T14:38:24.495Z,21.90
2018-06-18T14:40:55.852Z,21.95
2018-06-18T14:43:27.775Z,21.83
2018-06-18T14:45:59.276Z,21.69
2018-06-18T14:48:33.036Z,21.77
2018-06-18T14:51:04.281Z,21.77
2018-06-18T14:53:35.610Z,21.87
2018-06-18T14:56:18.218Z,21.66
2018-06-18T14:59:13.494Z,21.85
2018-06-18T15:01:44.855Z,21.87
2018-06-18T15:04:15.989Z,22.53
2018-06-18T15:06:47.361Z,22.99
2018-06-18T15:09:20.228Z,23.25
2018-06-18T15:11:52.775Z,22.49
2018-06-18T15:14:23.873Z,22.06
2018-06-18T15:16:55.070Z,22.05
2018-06-18T15:19:28.444Z,21.43
2018-06-18T15:22:00.873Z,21.94
2018-06-18T15:24:40.757Z,21.58
2018-06-18T15:27:11.991Z,21.41
2018-06-18T15:29:42.953Z,21.48
2018-06-18T15:32:14.371Z,21.43
2018-06-18T15:34:45.637Z,21.48
2018-06-18T15:37:16.870Z,21.41
2018-06-18T15:39:48.136Z,21.25
2018-06-18T15:42:19.486Z,21.91
2018-06-18T15:44:50.545Z,22.43
2018-06-18T15:47:21.973Z,22.57
2018-06-18T15:49:53.145Z,22.40
2018-06-18T15:52:24.627Z,21.63
2018-06-18T15:54:55.810Z,21.72
2018-06-18T15:57:27.137Z,22.16
2018-06-18T15:59:58.311Z,21.89
2018-06-18T16:02:29.569Z,22.02
2018-06-18T16:05:00.683Z,21.93
2018-06-18T16:07:32.795Z,21.66
2018-06-18T16:10:04.481Z,21.64
2018-06-18T16:12:35.787Z,21.51
2018-06-18T16:15:07.254Z,21.70
2018-06-18T16:17:38.727Z,21.74
2018-06-18T16:20:09.880Z,21.45
2018-06-18T16:22:41.224Z,21.35
2018-06-18T16:25:13.888Z,21.76
2018-06-18T16:27:47.223Z,21.63
2018-06-18T16:30:22.700Z,21.33
2018-06-18T16:32:56.851Z,21.45
2018-06-18T16:35:32.819Z,21.20
2018-06-18T16:38:06.368Z,21.27
2018-06-18T16:40:40.500Z,21.57
2018-06-18T16:43:17.355Z,21.64
2018-06-18T16:45:49.897Z,21.27
2018-06-18T16:48:23.077Z,21.70
2018-06-18T16:50:57.089Z,21.62
2018-06-18T16:53:29.788Z,21.62
2018-06-18T16:56:00.964Z,21.82
2018-06-18T16:58:32.310Z,21.73
2018-06-18T17:01:03.363Z,21.70
2018-06-18T17:03:34.675Z,21.91
2018-06-18T17:06:07.832Z,21.62
2018-06-18T17:08:39.248Z,21.59
2018-06-18T17:11:10.401Z,21.41
2018-06-18T17:13:42.289Z,21.40
2018-06-18T17:16:14.370Z,21.66
2018-06-18T17:18:45.799Z,21.34
2018-06-18T17:21:19.111Z,20.91
2018-06-18T17:23:50.882Z,21.29
2018-06-18T17:26:22.248Z,21.08
2018-06-18T17:28:53.312Z,21.10
2018-06-18T17:31:25.508Z,21.25
2018-06-18T17:33:56.997Z,20.96
2018-06-18T17:36:28.422Z,21.03
2018-06-18T17:38:59.583Z,20.92
2018-06-18T17:41:30.962Z,20.77
2018-06-18T17:44:01.973Z,20.64
2018-06-18T17:46:33.471Z,20.49
2018-06-18T17:49:04.629Z,20.60
2018-06-18T17:51:36.416Z,20.44
2018-06-18T17:54:07.451Z,20.51
2018-06-18T17:56:38.613Z,20.49
2018-06-18T17:59:09.941Z,20.40
2018-06-18T18:01:41.190Z,20.40
2018-06-18T18:04:12.206Z,20.53
2018-06-18T18:06:44.077Z,20.61
2018-06-18T18:09:15.181Z,20.34
2018-06-18T18:11:46.370Z,20.32
2018-06-18T18:14:17.676Z,20.26
2018-06-18T18:17:00.085Z,20.19
2018-06-18T18:19:35.445Z,20.21
2018-06-18T18:22:07.719Z,20.14
2018-06-18T18:24:40.546Z,20.16
2018-06-18T18:27:12.453Z,20.18
2018-06-18T18:29:43.832Z,20.05
2018-06-18T18:32:16.387Z,20.06
2018-06-18T18:34:48.383Z,20.01
2018-06-18T18:37:19.713Z,20.01
2018-06-18T18:39:51.102Z,19.77
2018-06-18T18:42:23.379Z,19.96
2018-06-18T18:44:55.387Z,19.79
2018-06-18T18:47:28.033Z,19.76
2018-06-18T18:49:59.575Z,19.78
2018-06-18T18:52:30.965Z,19.92
2018-06-18T18:55:43.090Z,19.93
2018-06-18T18:58:25.290Z,19.75
2018-06-18T19:00:57.896Z,19.87
2018-06-18T19:03:30.340Z,19.66
2018-06-18T19:06:02.068Z,19.49
2018-06-18T19:08:33.926Z,19.60
2018-06-18T19:11:06.193Z,19.56
2018-06-18T19:13:38.643Z,19.69
2018-06-18T19:16:10.425Z,19.36
2018-06-18T19:18:45.815Z,19.33
2018-06-18T19:21:17.426Z,19.43
2018-06-18T19:23:49.498Z,19.31
2018-06-18T19:26:21.405Z,19.19
2018-06-18T19:28:53.542Z,19.41
2018-06-18T19:31:27.757Z,19.23
2018-06-18T19:34:09.350Z,19.23
2018-06-18T19:36:46.228Z,19.50
2018-06-18T19:39:18.421Z,19.67
2018-06-18T19:41:49.787Z,19.69
2018-06-18T19:44:21.111Z,19.64
2018-06-18T19:49:18.365Z,19.65
2018-06-18T19:51:58.645Z,19.40
2018-06-18T19:54:34.249Z,19.35
2018-06-18T19:57:05.269Z,19.08
2018-06-18T19:59:36.637Z,19.16
2018-06-18T20:02:07.913Z,19.09
2018-06-18T20:04:39.723Z,19.07
2018-06-18T20:07:11.997Z,19.09
2018-06-18T20:09:45.118Z,19.13
2018-06-18T20:12:16.139Z,19.06
2018-06-18T20:14:47.665Z,18.88
2018-06-18T20:17:18.935Z,18.59
2018-06-18T20:19:50.295Z,18.63
2018-06-18T20:22:21.313Z,18.44
2018-06-18T20:24:53.412Z,18.65
2018-06-18T20:27:24.486Z,18.81
2018-06-18T20:29:55.909Z,18.58
2018-06-18T20:32:26.810Z,18.42
2018-06-18T20:34:58.772Z,18.61
2018-06-18T20:37:29.771Z,18.38
2018-06-18T20:40:01.160Z,18.20
2018-06-18T20:42:32.653Z,17.64
2018-06-18T20:45:03.668Z,17.79
2018-06-18T20:47:35.608Z,17.97
2018-06-18T20:50:09.233Z,18.04
2018-06-18T20:52:40.434Z,18.00
2018-06-18T20:55:12.071Z,17.97
2018-06-18T20:57:43.195Z,17.77
2018-06-18T21:00:14.295Z,17.39
2018-06-18T21:02:45.639Z,16.90
2018-06-18T21:05:16.853Z,16.67
2018-06-18T21:07:48.283Z,16.73
2018-06-18T21:10:19.854Z,16.89
2018-06-18T21:12:50.997Z,16.64
2018-06-18T21:15:22.436Z,16.77
2018-06-18T21:17:54.542Z,17.12
2018-06-18T21:20:28.339Z,16.64
2018-06-18T21:22:59.305Z,16.97
2018-06-18T21:25:30.669Z,16.47
2018-06-18T21:28:02.201Z,16.93
2018-06-18T21:30:33.673Z,16.76
2018-06-18T21:33:04.955Z,16.65
2018-06-18T21:35:36.085Z,16.83
2018-06-18T21:38:07.020Z,16.50
2018-06-18T21:40:38.113Z,16.21
2018-06-18T21:43:09.555Z,16.07
2018-06-18T21:45:40.870Z,16.34
2018-06-18T21:48:11.893Z,15.98
2018-06-18T21:50:43.339Z,16.00
2018-06-18T21:53:14.319Z,15.85
2018-06-18T21:55:45.545Z,15.41
2018-06-18T21:58:16.618Z,15.41
2018-06-18T22:00:50.473Z,15.85
2018-06-18T22:03:21.668Z,16.31
2018-06-18T22:05:53.006Z,16.36
2018-06-18T22:08:25.332Z,16.49
2018-06-18T22:10:56.835Z,16.26
2018-06-18T22:13:28.085Z,16.40
2018-06-18T22:15:59.446Z,16.61
2018-06-18T22:18:30.555Z,16.46
2018-06-18T22:21:01.940Z,16.58
2018-06-18T22:23:33.133Z,16.63
2018-06-18T22:26:04.248Z,16.29
2018-06-18T22:28:37.817Z,16.05
2018-06-18T22:31:08.957Z,16.55
2018-06-18T22:33:39.886Z,16.62
2018-06-18T22:36:11.249Z,16.45
2018-06-18T22:38:42.488Z,16.46
2018-06-18T22:41:14.317Z,16.42
2018-06-18T22:43:45.804Z,16.34
2018-06-18T22:46:17.231Z,16.45
2018-06-18T22:48:48.364Z,16.20
2018-06-18T22:51:19.569Z,16.34
2018-06-18T22:53:50.587Z,15.82
2018-06-18T22:56:22.018Z,15.96
2018-06-18T22:58:53.001Z,16.08
2018-06-18T23:01:24.016Z,16.27
2018-06-18T23:03:58.028Z,16.05
2018-06-18T23:06:30.769Z,16.26
2018-06-18T23:09:07.258Z,16.38
2018-06-18T23:11:38.449Z,16.11
2018-06-18T23:14:19.353Z,16.20
2018-06-18T23:16:50.421Z,15.98
2018-06-18T23:19:21.421Z,15.99
2018-06-18T23:21:52.626Z,15.77
2018-06-18T23:24:23.609Z,15.96
2018-06-18T23:26:54.879Z,16.05
2018-06-18T23:29:26.059Z,16.00
2018-06-18T23:31:57.500Z,15.95
2018-06-18T23:34:28.547Z,15.66
2018-06-18T23:36:59.548Z,15.81
2018-06-18T23:39:30.612Z,16.00
2018-06-18T23:42:01.806Z,15.67
2018-06-18T23:44:32.943Z,15.72
2018-06-18T23:47:04.160Z,15.94
2018-06-18T23:49:35.385Z,15.70
2018-06-18T23:52:06.642Z,15.44
2018-06-18T23:54:37.774Z,14.97
2018-06-18T23:57:09.149Z,15.02
2018-06-18T23:59:40.456Z,15.41
